createdAt,value
2018-06-19T00:00:39.006Z,101219.73
2018-06-19T00:03:06.059Z,101213.07
2018-06-19T00:05:33.077Z,101209.98
2018-06-19T00:08:01.367Z,101212.27
2018-06-19T00:10:28.694Z,101213.94
2018-06-19T00:12:56.859Z,101215.94
2018-06-19T00:15:24.311Z,101210.47
2018-06-19T00:17:55.573Z,101217.11
2018-06-19T00:20:22.679Z,101220.23
2018-06-19T00:22:49.718Z,101218.87
2018-06-19T00:25:19.020Z,101218.25
2018-06-19T00:27:46.876Z,101218.61
2018-06-19T00:30:14.052Z,101223.37
2018-06-19T00:32:42.114Z,101223.92
2018-06-19T00:35:10.428Z,101218.80
2018-06-19T00:37:38.385Z,101211.70
2018-06-19T00:40:05.432Z,101211.45
2018-06-19T00:42:32.449Z,101210.64
2018-06-19T00:44:59.539Z,101213.41
2018-06-19T00:47:26.554Z,101218.63
2018-06-19T00:49:53.561Z,101211.83
2018-06-19T00:52:20.557Z,101212.63
2018-06-19T00:54:47.570Z,101212.63
2018-06-19T00:57:14.793Z,101217.22
2018-06-19T00:59:41.782Z,101216.25
2018-06-19T01:02:08.931Z,101210.88
2018-06-19T01:04:35.984Z,101211.97
2018-06-19T01:07:03.097Z,101219.65
2018-06-19T01:09:30.098Z,101211.34
2018-06-19T01:11:57.128Z,101207.38
2018-06-19T01:14:24.132Z,101212.67
2018-06-19T01:16:51.181Z,101212.44
2018-06-19T01:19:18.188Z,101212.91
2018-06-19T01:21:45.242Z,101208.48
2018-06-19T01:24:12.543Z,101205.88
2018-06-19T01:26:39.673Z,101203.36
2018-06-19T01:29:06.758Z,101196.94
2018-06-19T01:31:33.991Z,101201.23
2018-06-19T01:34:01.002Z,101204.22
2018-06-19T01:36:28.040Z,101196.77
2018-06-19T01:38:55.058Z,101196.87
2018-06-19T01:41:22.084Z,101201.30
2018-06-19T01:43:49.099Z,101196.77
2018-06-19T01:46:16.421Z,101193.15
2018-06-19T01:48:43.427Z,101188.66
2018-06-19T01:51:10.446Z,101189.36
2018-06-19T01:53:37.474Z,101196.83
2018-06-19T01:56:04.497Z,101196.59
2018-06-19T01:58:31.497Z,101189.88
2018-06-19T02:00:58.533Z,101184.02
2018-06-19T02:03:25.564Z,101186.31
2018-06-19T02:05:52.858Z,101186.61
2018-06-19T02:08:19.887Z,101191.27
2018-06-19T02:10:46.882Z,101185.28
2018-06-19T02:13:13.894Z,101185.63
2018-06-19T02:15:40.994Z,101184.59
2018-06-19T02:18:08.086Z,101183.69
2018-06-19T02:20:35.102Z,101179.83
2018-06-19T02:23:02.208Z,101185.52
2018-06-19T02:25:29.227Z,101177.47
2018-06-19T02:27:56.349Z,101182.52
2018-06-19T02:30:23.366Z,101185.22
2018-06-19T02:32:50.466Z,101179.08
2018-06-19T02:35:17.489Z,101181.73
2018-06-19T02:37:44.523Z,101174.72
2018-06-19T02:40:11.533Z,101174.09
2018-06-19T02:42:38.754Z,101183.56
2018-06-19T02:45:05.822Z,101182.23
2018-06-19T02:47:32.870Z,101171.97
2018-06-19T02:49:59.916Z,101176.16
2018-06-19T02:52:26.921Z,101174.76
2018-06-19T02:54:53.935Z,101174.19
2018-06-19T02:57:20.946Z,101169.30
2018-06-19T02:59:47.937Z,101169.77
2018-06-19T03:02:15.024Z,101167.41
2018-06-19T03:04:42.037Z,101163.16
2018-06-19T03:07:09.042Z,101164.88
2018-06-19T03:09:36.054Z,101173.89
2018-06-19T03:12:03.360Z,101173.33
2018-06-19T03:14:30.385Z,101169.94
2018-06-19T03:16:57.391Z,101172.95
2018-06-19T03:19:24.436Z,101178.48
2018-06-19T03:21:51.531Z,101176.68
2018-06-19T03:24:18.532Z,101171.99
2018-06-19T03:26:45.549Z,101182.60
2018-06-19T03:29:12.820Z,101185.59
2018-06-19T03:31:39.821Z,101185.99
2018-06-19T03:34:06.855Z,101186.32
2018-06-19T03:36:33.942Z,101188.91
2018-06-19T03:39:01.040Z,101189.37
2018-06-19T03:41:28.043Z,101190.97
2018-06-19T03:43:55.077Z,101187.73
2018-06-19T03:46:28.250Z,101198.88
2018-06-19T03:48:55.318Z,101201.57
2018-06-19T03:51:22.315Z,101204.79
2018-06-19T03:53:49.310Z,101209.48
2018-06-19T03:56:16.423Z,101209.70
2018-06-19T03:58:43.506Z,101205.81
2018-06-19T04:01:10.558Z,101205.52
2018-06-19T04:03:37.663Z,101203.95
2018-06-19T04:06:04.762Z,101208.20
2018-06-19T04:08:31.770Z,101212.95
2018-06-19T04:10:58.868Z,101213.09
2018-06-19T04:13:25.974Z,101213.19
2018-06-19T04:15:53.057Z,101215.53
2018-06-19T04:18:20.090Z,101213.87
2018-06-19T04:20:47.113Z,101215.80
2018-06-19T04:23:14.194Z,101216.66
2018-06-19T04:25:41.313Z,101211.75
2018-06-19T04:28:08.394Z,101208.36
2018-06-19T04:30:35.408Z,101206.59
2018-06-19T04:33:02.455Z,101203.92
2018-06-19T04:35:29.493Z,101201.14
2018-06-19T04:37:56.594Z,101206.05
2018-06-19T04:40:23.596Z,101211.21
2018-06-19T04:42:50.650Z,101209.61
2018-06-19T04:45:17.697Z,101212.30
2018-06-19T04:47:44.787Z,101211.65
2018-06-19T04:50:12.161Z,101218.47
2018-06-19T04:52:39.180Z,101215.45
2018-06-19T04:55:06.189Z,101211.41
2018-06-19T04:57:33.216Z,101209.42
2018-06-19T05:00:00.250Z,101209.13
2018-06-19T05:02:27.259Z,101203.88
2018-06-19T05:04:54.289Z,101203.47
2018-06-19T05:07:21.337Z,101203.56
2018-06-19T05:09:48.434Z,101199.11
2018-06-19T05:12:15.514Z,101205.44
2018-06-19T05:14:42.801Z,101200.99
2018-06-19T05:17:09.845Z,101198.00
2018-06-19T05:19:36.895Z,101208.49
2018-06-19T05:22:03.927Z,101198.52
2018-06-19T05:24:31.105Z,101199.31
2018-06-19T05:26:58.106Z,101194.37
2018-06-19T05:29:25.150Z,101202.82
2018-06-19T05:31:52.177Z,101205.50
2018-06-19T05:34:19.510Z,101211.49
2018-06-19T05:36:46.542Z,101220.59
2018-06-19T05:39:13.669Z,101219.69
2018-06-19T05:41:40.699Z,101217.47
2018-06-19T05:44:08.377Z,101219.23
2018-06-19T05:46:35.874Z,101219.48
2018-06-19T05:49:03.091Z,101223.09
2018-06-19T05:51:30.146Z,101226.17
2018-06-19T05:53:57.502Z,101235.39
2018-06-19T05:56:24.514Z,101223.93
2018-06-19T05:58:51.618Z,101223.98
2018-06-19T06:01:18.639Z,101228.55
2018-06-19T06:03:45.725Z,101232.45
2018-06-19T06:06:12.750Z,101241.88
2018-06-19T06:08:40.033Z,101243.64
2018-06-19T06:11:07.867Z,101248.39
2018-06-19T06:13:34.895Z,101248.80
2018-06-19T06:16:01.934Z,101248.39
2018-06-19T06:18:28.956Z,101251.84
2018-06-19T06:20:56.049Z,101256.44
2018-06-19T06:23:23.058Z,101252.92
2018-06-19T06:25:50.225Z,101249.70
2018-06-19T06:28:17.245Z,101259.20
2018-06-19T06:30:44.261Z,101259.57
2018-06-19T06:33:11.290Z,101253.33
2018-06-19T06:35:38.311Z,101260.84
2018-06-19T06:38:05.422Z,101264.92
2018-06-19T06:40:32.443Z,101267.28
2018-06-19T06:42:59.465Z,101256.25
2018-06-19T06:45:26.522Z,101257.59
2018-06-19T06:47:53.547Z,101266.48
2018-06-19T06:50:20.636Z,101265.94
2018-06-19T06:52:47.744Z,101262.22
2018-06-19T06:55:14.859Z,101257.73
2018-06-19T06:57:42.576Z,101272.88
2018-06-19T07:00:09.800Z,101265.77
2018-06-19T07:02:36.829Z,101264.09
2018-06-19T07:05:03.897Z,101272.70
2018-06-19T07:07:30.918Z,101277.98
2018-06-19T07:09:57.989Z,101294.87
2018-06-19T07:12:25.040Z,101295.16
2018-06-19T07:14:52.087Z,101298.08
2018-06-19T07:17:19.349Z,101300.61
2018-06-19T07:19:46.579Z,101315.23
2018-06-19T07:22:13.717Z,101311.83
2018-06-19T07:24:40.763Z,101315.92
2018-06-19T07:27:08.593Z,101328.63
2018-06-19T07:29:36.055Z,101315.38
2018-06-19T07:32:03.157Z,101313.38
2018-06-19T07:34:30.282Z,101306.64
2018-06-19T07:36:57.357Z,101322.42
2018-06-19T07:39:24.390Z,101322.15
2018-06-19T07:41:51.425Z,101331.89
2018-06-19T07:44:18.502Z,101338.06
2018-06-19T07:46:45.533Z,101331.17
2018-06-19T07:49:12.590Z,101331.77
2018-06-19T07:51:39.634Z,101333.48
2018-06-19T07:54:06.689Z,101332.37
2018-06-19T07:56:33.958Z,101335.05
2018-06-19T07:59:01.099Z,101348.70
2018-06-19T08:01:28.147Z,101347.91
2018-06-19T08:03:55.202Z,101346.58
2018-06-19T08:06:22.350Z,101356.06
2018-06-19T08:08:49.418Z,101365.23
2018-06-19T08:11:16.477Z,101361.88
2018-06-19T08:13:43.493Z,101371.72
2018-06-19T08:16:10.542Z,101370.91
2018-06-19T08:18:37.652Z,101365.08
2018-06-19T08:21:04.866Z,101365.81
2018-06-19T08:23:31.909Z,101369.95
2018-06-19T08:25:58.955Z,101376.22
2018-06-19T08:28:26.011Z,101377.98
2018-06-19T08:30:53.062Z,101383.20
2018-06-19T08:33:20.134Z,101387.28
2018-06-19T08:35:47.178Z,101396.80
2018-06-19T08:38:14.241Z,101396.64
2018-06-19T08:40:41.294Z,101395.39
2018-06-19T08:43:08.323Z,101393.97
2018-06-19T08:45:35.393Z,101402.02
2018-06-19T08:48:02.506Z,101405.91
2018-06-19T08:50:29.557Z,101406.53
2018-06-19T08:52:56.637Z,101397.98
2018-06-19T08:55:24.119Z,101404.30
2018-06-19T08:57:51.164Z,101407.30
2018-06-19T09:00:18.319Z,101420.14
2018-06-19T09:02:45.565Z,101419.06
2018-06-19T09:05:12.639Z,101421.28
2018-06-19T09:07:39.707Z,101429.28
2018-06-19T09:10:06.786Z,101427.91
2018-06-19T09:12:33.826Z,101435.20
2018-06-19T09:15:00.879Z,101431.62
2018-06-19T09:17:27.930Z,101439.84
2018-06-19T09:19:55.007Z,101443.15
2018-06-19T09:22:22.043Z,101430.81
2018-06-19T09:24:49.168Z,101438.97
2018-06-19T09:27:16.242Z,101434.74
2018-06-19T09:29:43.302Z,101425.11
2018-06-19T09:32:10.383Z,101426.32
2018-06-19T09:34:37.429Z,101420.41
2018-06-19T09:37:04.483Z,101425.03
2018-06-19T09:39:31.555Z,101437.87
2018-06-19T09:41:58.684Z,101422.95
2018-06-19T09:44:25.893Z,101425.42
2018-06-19T09:46:52.964Z,101431.73
2018-06-19T09:49:20.030Z,101434.27
2018-06-19T09:51:47.169Z,101434.87
2018-06-19T09:54:14.206Z,101426.66
2018-06-19T09:56:41.285Z,101427.84
2018-06-19T09:59:08.444Z,101435.86
2018-06-19T10:01:35.455Z,101431.42
2018-06-19T10:04:02.621Z,101432.52
2018-06-19T10:06:29.783Z,101436.38
2018-06-19T10:08:56.814Z,101446.94
2018-06-19T10:11:23.904Z,101445.30
2018-06-19T10:13:50.967Z,101445.50
2018-06-19T10:16:18.713Z,101453.27
2018-06-19T10:18:45.738Z,101451.09
2018-06-19T10:21:12.810Z,101451.18
2018-06-19T10:23:39.863Z,101455.82
2018-06-19T10:26:06.931Z,101445.94
2018-06-19T10:28:34.056Z,101445.27
2018-06-19T10:31:01.057Z,101446.06
2018-06-19T10:33:28.121Z,101444.06
2018-06-19T10:35:55.153Z,101441.24
2018-06-19T10:38:22.306Z,101448.09
2018-06-19T10:40:49.375Z,101452.44
2018-06-19T10:43:16.443Z,101441.01
2018-06-19T10:45:43.528Z,101442.69
2018-06-19T10:48:10.633Z,101449.95
2018-06-19T10:50:37.723Z,101438.84
2018-06-19T10:53:04.773Z,101440.84
2018-06-19T10:55:31.885Z,101447.81
2018-06-19T10:57:58.901Z,101443.59
2018-06-19T11:00:27.969Z,101443.53
2018-06-19T11:02:56.876Z,101445.45
2018-06-19T11:05:28.265Z,101446.85
2018-06-19T11:08:02.761Z,101441.14
2018-06-19T11:10:30.509Z,101446.72
2018-06-19T11:13:00.260Z,101454.52
2018-06-19T11:15:27.511Z,101452.78
2018-06-19T11:17:54.579Z,101454.05
2018-06-19T11:20:21.869Z,101455.33
2018-06-19T11:22:49.009Z,101449.39
2018-06-19T11:25:16.374Z,101452.25
2018-06-19T11:27:43.540Z,101448.56
2018-06-19T11:30:11.029Z,101455.86
2018-06-19T11:32:38.306Z,101439.34
2018-06-19T11:35:05.439Z,101447.67
2018-06-19T11:37:32.552Z,101448.95
2018-06-19T11:39:59.650Z,101451.20
2018-06-19T11:42:27.147Z,101450.98
2018-06-19T11:44:54.226Z,101456.61
2018-06-19T11:47:21.335Z,101450.37
2018-06-19T11:49:48.544Z,101451.42
2018-06-19T11:52:15.632Z,101453.00
2018-06-19T11:54:42.802Z,101454.91
2018-06-19T11:57:09.899Z,101459.45
2018-06-19T11:59:37.026Z,101461.71
2018-06-19T12:02:04.126Z,101468.18
2018-06-19T12:04:31.225Z,101459.55
2018-06-19T12:06:58.357Z,101459.54
2018-06-19T12:09:25.518Z,101465.10
2018-06-19T12:11:52.988Z,101471.86
2018-06-19T12:14:20.318Z,101467.77
2018-06-19T12:16:47.505Z,101468.22
2018-06-19T12:19:14.649Z,101465.67
2018-06-19T12:21:41.728Z,101473.97
2018-06-19T12:24:08.863Z,101470.29
2018-06-19T12:26:35.973Z,101487.84
2018-06-19T12:29:03.307Z,101477.45
2018-06-19T12:31:30.504Z,101486.21
2018-06-19T12:33:57.957Z,101483.73
2018-06-19T12:36:25.078Z,101487.47
2018-06-19T12:38:52.343Z,101484.37
2018-06-19T12:41:19.434Z,101492.20
2018-06-19T12:43:46.601Z,101496.37
2018-06-19T12:46:13.768Z,101502.98
2018-06-19T12:48:40.977Z,101496.94
2018-06-19T12:51:45.547Z,101497.61
2018-06-19T12:54:53.401Z,101500.64
2018-06-19T12:57:20.431Z,101506.62
2018-06-19T12:59:47.703Z,101508.02
2018-06-19T13:02:14.787Z,101506.85
2018-06-19T13:04:53.468Z,101512.95
2018-06-19T13:07:20.500Z,101514.72
2018-06-19T13:09:47.936Z,101512.45
2018-06-19T13:12:26.732Z,101515.95
2018-06-19T13:14:53.919Z,101524.81
2018-06-19T13:17:32.391Z,101527.28
2018-06-19T13:20:11.004Z,101519.55
2018-06-19T13:22:38.134Z,101528.59
2018-06-19T13:25:05.210Z,101523.23
2018-06-19T13:27:32.551Z,101524.77
2018-06-19T13:30:11.307Z,101518.58
2018-06-19T13:32:39.453Z,101521.48
2018-06-19T13:35:06.581Z,101522.92
2018-06-19T13:37:33.976Z,101526.44
2018-06-19T13:41:26.107Z,101524.73
2018-06-19T13:44:14.964Z,101516.30
2018-06-19T13:46:42.101Z,101529.55
2018-06-19T13:49:09.181Z,101527.73
2018-06-19T13:51:36.305Z,101536.80
2018-06-19T13:54:03.835Z,101537.11
2018-06-19T13:57:41.432Z,101549.66
2018-06-19T14:00:11.804Z,101540.05
2018-06-19T14:02:38.921Z,101549.53
2018-06-19T14:05:06.886Z,101551.98
2018-06-19T14:07:40.560Z,101544.34
2018-06-19T14:10:24.817Z,101557.14
2018-06-19T14:12:59.617Z,101560.73
2018-06-19T14:15:28.117Z,101555.64
2018-06-19T14:17:55.458Z,101556.95
2018-06-19T14:20:22.814Z,101553.43
2018-06-19T14:22:49.999Z,101552.56
2018-06-19T14:25:17.709Z,101556.28
2018-06-19T14:27:45.049Z,101559.55
2018-06-19T14:30:12.503Z,101563.17
2018-06-19T14:32:39.728Z,101564.56
2018-06-19T14:35:06.841Z,101575.13
2018-06-19T14:37:33.977Z,101563.42
2018-06-19T14:40:01.152Z,101570.52
2018-06-19T14:42:28.190Z,101558.45
2018-06-19T14:44:55.685Z,101567.39
2018-06-19T14:47:22.763Z,101572.81
2018-06-19T14:49:50.110Z,101577.38
2018-06-19T14:52:17.191Z,101570.37
2018-06-19T14:54:44.405Z,101577.84
2018-06-19T14:57:11.590Z,101570.23
2018-06-19T14:59:38.698Z,101570.57
2018-06-19T15:02:06.203Z,101581.27
2018-06-19T15:04:33.348Z,101575.46
2018-06-19T15:07:00.653Z,101578.38
2018-06-19T15:09:27.832Z,101576.17
2018-06-19T15:11:55.148Z,101575.87
2018-06-19T15:14:22.628Z,101581.62
2018-06-19T15:16:49.884Z,101580.83
2018-06-19T15:19:17.272Z,101575.42
2018-06-19T15:21:44.396Z,101585.45
2018-06-19T15:24:11.953Z,101581.45
2018-06-19T15:26:38.929Z,101579.98
2018-06-19T15:29:05.977Z,101581.45
2018-06-19T15:31:32.981Z,101571.47
2018-06-19T15:34:00.081Z,101582.90
2018-06-19T15:36:27.310Z,101585.17
2018-06-19T15:38:54.317Z,101584.00
2018-06-19T15:41:21.759Z,101590.75
2018-06-19T15:43:48.876Z,101592.22
2018-06-19T15:46:15.905Z,101597.27
2018-06-19T15:48:43.195Z,101590.72
2018-06-19T15:51:10.215Z,101585.30
2018-06-19T15:53:37.305Z,101590.77
2018-06-19T15:56:04.425Z,101591.42
2018-06-19T15:58:32.800Z,101597.26
2018-06-19T16:00:59.895Z,101594.02
2018-06-19T16:03:27.012Z,101589.98
2018-06-19T16:05:54.277Z,101590.18
2018-06-19T16:08:21.679Z,101594.83
2018-06-19T16:10:49.444Z,101591.16
2018-06-19T16:13:16.758Z,101591.16
2018-06-19T16:15:44.885Z,101586.72
2018-06-19T16:18:12.962Z,101592.02
2018-06-19T16:20:39.985Z,101598.06
2018-06-19T16:23:07.340Z,101599.36
2018-06-19T16:25:35.634Z,101593.17
2018-06-19T16:28:02.762Z,101599.41
2018-06-19T16:30:29.894Z,101607.10
2018-06-19T16:32:57.170Z,101601.12
2018-06-19T16:35:24.213Z,101608.10
2018-06-19T16:37:51.369Z,101611.28
2018-06-19T16:40:18.777Z,101605.20
2018-06-19T16:42:46.422Z,101602.98
2018-06-19T16:45:13.467Z,101606.70
2018-06-19T16:47:40.534Z,101601.23
2018-06-19T16:50:07.870Z,101612.18
2018-06-19T16:52:35.623Z,101616.42
2018-06-19T16:55:03.803Z,101606.25
2018-06-19T16:57:31.255Z,101608.88
2018-06-19T16:59:58.355Z,101612.44
2018-06-19T17:02:25.398Z,101617.89
2018-06-19T17:04:52.809Z,101611.86
2018-06-19T17:07:20.187Z,101618.19
2018-06-19T17:09:47.429Z,101610.59
2018-06-19T17:12:14.614Z,101612.45
2018-06-19T17:14:42.560Z,101616.73
2018-06-19T17:17:10.688Z,101611.05
2018-06-19T17:19:38.614Z,101612.20
2018-06-19T17:22:07.472Z,101617.90
2018-06-19T17:24:34.904Z,101620.29
2018-06-19T17:27:02.133Z,101621.11
2018-06-19T17:29:29.158Z,101619.55
2018-06-19T17:31:56.474Z,101612.77
2018-06-19T17:34:23.861Z,101612.27
2018-06-19T17:36:51.233Z,101621.31
2018-06-19T17:39:18.609Z,101615.92
2018-06-19T17:41:45.632Z,101618.82
2018-06-19T17:44:12.969Z,101609.56
2018-06-19T17:46:40.050Z,101610.05
2018-06-19T17:49:07.257Z,101605.28
2018-06-19T17:51:34.302Z,101603.47
2018-06-19T17:54:01.341Z,101600.19
2018-06-19T17:56:28.477Z,101612.52
2018-06-19T17:58:55.486Z,101614.06
2018-06-19T18:01:23.636Z,101613.29
2018-06-19T18:03:50.670Z,101622.47
2018-06-19T18:06:17.761Z,101614.56
2018-06-19T18:08:44.813Z,101610.61
2018-06-19T18:11:12.013Z,101615.02
2018-06-19T18:13:39.896Z,101607.20
2018-06-19T18:16:07.077Z,101617.64
2018-06-19T18:18:35.002Z,101614.64
2018-06-19T18:21:02.150Z,101615.37
2018-06-19T18:23:29.248Z,101611.72
2018-06-19T18:25:56.285Z,101620.16
2018-06-19T18:28:23.317Z,101609.23
2018-06-19T18:30:51.003Z,101608.76
2018-06-19T18:33:18.633Z,101606.74
2018-06-19T18:35:45.670Z,101613.91
2018-06-19T18:38:13.496Z,101616.77
2018-06-19T18:40:40.651Z,101617.98
2018-06-19T18:43:08.145Z,101615.56
2018-06-19T18:45:35.566Z,101621.56
2018-06-19T18:48:03.304Z,101616.60
2018-06-19T18:50:30.426Z,101621.24
2018-06-19T18:52:57.469Z,101619.45
2018-06-19T18:55:24.541Z,101619.16
2018-06-19T18:57:52.126Z,101624.15
2018-06-19T19:00:19.208Z,101624.09
2018-06-19T19:02:46.311Z,101620.13
2018-06-19T19:05:13.455Z,101620.48
2018-06-19T19:07:40.694Z,101626.24
2018-06-19T19:10:13.481Z,101626.13
2018-06-19T19:12:40.522Z,101631.89
2018-06-19T19:15:13.373Z,101635.89
2018-06-19T19:17:46.712Z,101642.29
2018-06-19T19:20:15.605Z,101641.53
2018-06-19T19:22:42.641Z,101637.82
2018-06-19T19:25:10.382Z,101647.45
2018-06-19T19:27:43.677Z,101638.81
2018-06-19T19:30:10.882Z,101641.78
2018-06-19T19:32:38.457Z,101655.89
2018-06-19T19:35:05.860Z,101652.90
2018-06-19T19:37:38.684Z,101659.09
2018-06-19T19:40:05.746Z,101668.83
2018-06-19T19:42:32.793Z,101662.25
2018-06-19T19:44:59.810Z,101667.34
2018-06-19T19:47:32.765Z,101671.84
2018-06-19T19:49:59.977Z,101671.91
2018-06-19T19:52:27.095Z,101675.58
2018-06-19T19:54:54.183Z,101683.76
2018-06-19T19:57:27.290Z,101677.72
2018-06-19T19:59:54.405Z,101682.91
2018-06-19T20:02:21.449Z,101684.58
2018-06-19T20:04:48.478Z,101687.97
2018-06-19T20:07:15.524Z,101681.00
2018-06-19T20:09:42.540Z,101687.97
2018-06-19T20:12:09.597Z,101683.01
2018-06-19T20:14:37.053Z,101683.23
2018-06-19T20:17:04.101Z,101687.87
2018-06-19T20:19:31.581Z,101688.97
2018-06-19T20:21:58.871Z,101689.52
2018-06-19T20:24:26.057Z,101687.33
2018-06-19T20:26:53.417Z,101691.95
2018-06-19T20:29:20.425Z,101695.69
2018-06-19T20:31:47.461Z,101698.98
2018-06-19T20:34:15.072Z,101706.70
2018-06-19T20:36:42.104Z,101699.10
2018-06-19T20:39:09.893Z,101702.68
2018-06-19T20:41:36.991Z,101700.33
2018-06-19T20:44:05.286Z,101703.33
2018-06-19T20:46:33.305Z,101700.11
2018-06-19T20:49:00.362Z,101700.30
2018-06-19T20:51:27.516Z,101704.70
2018-06-19T20:53:54.911Z,101704.91
2018-06-19T20:56:21.932Z,101708.00
2018-06-19T20:58:49.200Z,101705.73
2018-06-19T21:01:16.378Z,101706.34
2018-06-19T21:03:43.513Z,101701.09
2018-06-19T21:06:10.746Z,101704.44
2018-06-19T21:08:41.557Z,101706.98
2018-06-19T21:11:10.875Z,101706.02
2018-06-19T21:13:38.288Z,101707.63
2018-06-19T21:16:05.598Z,101711.16
2018-06-19T21:18:32.860Z,101710.73
2018-06-19T21:21:00.930Z,101715.91
2018-06-19T21:23:28.132Z,101704.87
2018-06-19T21:25:55.457Z,101706.23
2018-06-19T21:28:22.607Z,101714.15
2018-06-19T21:30:49.844Z,101705.70
2018-06-19T21:33:17.839Z,101711.56
2018-06-19T21:35:45.090Z,101712.82
2018-06-19T21:38:13.059Z,101712.33
2018-06-19T21:40:40.480Z,101704.28
2018-06-19T21:43:07.641Z,101715.06
2018-06-19T21:45:34.788Z,101722.16
2018-06-19T21:48:02.232Z,101725.28
2018-06-19T21:50:29.397Z,101724.22
2018-06-19T21:52:57.085Z,101713.45
2018-06-19T21:55:24.229Z,101714.87
2018-06-19T21:57:51.480Z,101701.84
2018-06-19T22:00:18.641Z,101708.84
2018-06-19T22:02:46.419Z,101708.25
2018-06-19T22:05:13.564Z,101703.31
2018-06-19T22:07:41.205Z,101706.70
2018-06-19T22:10:08.381Z,101711.75
2018-06-19T22:12:35.919Z,101710.02
2018-06-19T22:15:03.426Z,101704.18
2018-06-19T22:17:30.822Z,101711.67
2018-06-19T22:19:59.720Z,101706.50
2018-06-19T22:22:27.327Z,101703.89
2018-06-19T22:24:54.547Z,101705.43
2018-06-19T22:27:22.104Z,101702.81
2018-06-19T22:29:49.257Z,101702.34
2018-06-19T22:32:16.412Z,101699.12
2018-06-19T22:34:43.589Z,101693.98
2018-06-19T22:37:10.764Z,101692.44
2018-06-19T22:39:37.913Z,101688.25
2018-06-19T22:42:05.392Z,101679.88
2018-06-19T22:44:32.552Z,101680.27
2018-06-19T22:46:59.701Z,101675.22
2018-06-19T22:49:27.015Z,101679.77
2018-06-19T22:51:54.174Z,101683.82
2018-06-19T22:54:21.321Z,101683.05
2018-06-19T22:56:48.492Z,101680.86
2018-06-19T22:59:16.493Z,101686.48
2018-06-19T23:01:43.633Z,101679.59
2018-06-19T23:04:10.839Z,101681.46
2018-06-19T23:06:38.185Z,101682.22
2018-06-19T23:09:06.811Z,101678.81
2018-06-19T23:11:33.975Z,101677.89
2018-06-19T23:14:01.148Z,101677.95
2018-06-19T23:16:28.382Z,101682.70
2018-06-19T23:18:56.031Z,101681.70
2018-06-19T23:21:23.192Z,101677.00
2018-06-19T23:23:50.345Z,101674.30
2018-06-19T23:26:17.488Z,101677.33
2018-06-19T23:28:45.142Z,101676.98
2018-06-19T23:31:12.289Z,101681.70
2018-06-19T23:33:39.461Z,101684.08
2018-06-19T23:36:07.264Z,101683.99
2018-06-19T23:38:34.416Z,101683.33
2018-06-19T23:41:01.659Z,101671.56
2018-06-19T23:43:28.949Z,101672.92
2018-06-19T23:45:56.113Z,101677.30
2018-06-19T23:48:23.383Z,101677.48
2018-06-19T23:50:50.792Z,101670.43
2018-06-19T23:53:18.037Z,101672.62
2018-06-19T23:55:45.226Z,101666.28
2018-06-19T23:58:12.394Z,101675.11
